createdAt,value
2022-08-24T00:00:07.137Z,100.00
2022-08-24T00:03:13.330Z,100.00
2022-08-24T00:06:19.845Z,100.00
2022-08-24T00:09:25.451Z,100.00
2022-08-24T00:12:32.412Z,100.00
2022-08-24T00:15:37.763Z,100.00
2022-08-24T00:18:43.472Z,100.00
2022-08-24T00:21:49.228Z,100.00
2022-08-24T00:24:54.360Z,100.00
2022-08-24T00:28:01.671Z,100.00
2022-08-24T00:31:08.185Z,100.00
2022-08-24T00:34:18.573Z,100.00
2022-08-24T00:37:24.240Z,100.00
2022-08-24T00:40:33.916Z,100.00
2022-08-24T00:43:40.737Z,100.00
2022-08-24T00:46:48.836Z,100.00
2022-08-24T00:49:56.284Z,100.00
2022-08-24T00:53:04.066Z,100.00
2022-08-24T00:56:16.290Z,100.00
2022-08-24T00:59:23.952Z,100.00
2022-08-24T01:02:32.456Z,100.00
2022-08-24T01:05:38.730Z,100.00
2022-08-24T01:08:44.580Z,100.00
2022-08-24T01:11:50.156Z,100.00
2022-08-24T01:14:57.707Z,100.00
2022-08-24T01:18:20.858Z,100.00
2022-08-24T01:21:29.017Z,100.00
2022-08-24T01:24:36.881Z,100.00
2022-08-24T01:27:43.806Z,100.00
2022-08-24T01:30:49.502Z,100.00
2022-08-24T01:33:55.373Z,100.00
2022-08-24T01:37:00.449Z,100.00
2022-08-24T01:40:07.933Z,100.00
2022-08-24T01:43:15.201Z,100.00
2022-08-24T01:46:21.077Z,100.00
2022-08-24T01:49:27.984Z,100.00
2022-08-24T01:53:01.563Z,100.00
2022-08-24T01:56:01.349Z,100.00
2022-08-24T01:59:07.488Z,100.00
2022-08-24T02:02:15.510Z,100.00
2022-08-24T02:05:20.889Z,100.00
2022-08-24T02:08:26.081Z,100.00
2022-08-24T02:11:33.162Z,100.00
2022-08-24T02:14:38.936Z,100.00
2022-08-24T02:17:44.161Z,100.00
2022-08-24T02:20:49.692Z,100.00
2022-08-24T02:23:55.262Z,100.00
2022-08-24T02:27:02.623Z,100.00
2022-08-24T02:30:08.606Z,100.00
2022-08-24T02:33:14.168Z,100.00
2022-08-24T02:36:25.572Z,100.00
2022-08-24T02:39:31.643Z,100.00
2022-08-24T02:42:38.481Z,100.00
2022-08-24T02:45:49.578Z,100.00
2022-08-24T02:49:10.330Z,100.00
2022-08-24T02:52:17.124Z,100.00
2022-08-24T02:55:22.605Z,100.00
2022-08-24T02:58:29.061Z,100.00
2022-08-24T03:01:34.448Z,100.00
2022-08-24T03:04:39.948Z,100.00
2022-08-24T03:07:45.305Z,100.00
2022-08-24T03:10:50.580Z,100.00
2022-08-24T03:13:59.242Z,100.00
2022-08-24T03:17:05.072Z,100.00
2022-08-24T03:20:12.300Z,100.00
2022-08-24T03:23:17.880Z,100.00
2022-08-24T03:26:23.352Z,100.00
2022-08-24T03:29:33.794Z,100.00
2022-08-24T03:32:39.327Z,100.00
2022-08-24T03:35:44.882Z,100.00
2022-08-24T03:38:50.614Z,100.00
2022-08-24T03:41:55.968Z,100.00
2022-08-24T03:45:02.389Z,100.00
2022-08-24T03:48:08.310Z,100.00
2022-08-24T03:51:15.231Z,100.00
2022-08-24T03:54:20.989Z,100.00
2022-08-24T03:57:26.184Z,100.00
2022-08-24T04:00:33.290Z,100.00
2022-08-24T04:03:39.118Z,100.00
2022-08-24T04:06:46.867Z,100.00
2022-08-24T04:09:52.437Z,100.00
2022-08-24T04:12:58.571Z,100.00
2022-08-24T04:16:07.661Z,100.00
2022-08-24T04:19:14.460Z,100.00
2022-08-24T04:22:19.962Z,100.00
2022-08-24T04:25:25.359Z,100.00
2022-08-24T04:28:31.159Z,100.00
2022-08-24T04:31:38.158Z,100.00
2022-08-24T04:34:43.927Z,100.00
2022-08-24T04:37:49.120Z,100.00
2022-08-24T04:40:55.029Z,100.00
2022-08-24T04:44:06.061Z,100.00
2022-08-24T04:47:13.122Z,100.00
2022-08-24T04:50:19.154Z,100.00
2022-08-24T04:53:36.660Z,100.00
2022-08-24T04:56:42.920Z,100.00
2022-08-24T04:59:48.560Z,100.00
2022-08-24T05:02:55.265Z,100.00
2022-08-24T05:06:00.567Z,100.00
2022-08-24T05:09:06.076Z,100.00
2022-08-24T05:12:11.850Z,100.00
2022-08-24T05:15:17.522Z,100.00
2022-08-24T05:18:23.617Z,100.00
2022-08-24T05:21:30.933Z,100.00
2022-08-24T05:24:36.416Z,100.00
2022-08-24T05:27:41.884Z,100.00
2022-08-24T05:30:47.182Z,100.00
2022-08-24T05:34:01.207Z,100.00
2022-08-24T05:37:06.717Z,100.00
2022-08-24T05:40:12.957Z,100.00
2022-08-24T05:43:18.413Z,100.00
2022-08-24T05:46:23.677Z,100.00
2022-08-24T05:49:31.107Z,100.00
2022-08-24T05:52:36.237Z,100.00
2022-08-24T05:55:41.750Z,100.00
2022-08-24T05:58:47.334Z,100.00
2022-08-24T06:01:53.533Z,100.00
2022-08-24T06:05:00.428Z,100.00
2022-08-24T06:08:05.705Z,100.00
2022-08-24T06:11:10.917Z,100.00
2022-08-24T06:14:17.117Z,100.00
2022-08-24T06:17:22.702Z,100.00
2022-08-24T06:20:30.693Z,100.00
2022-08-24T06:23:36.625Z,100.00
2022-08-24T06:26:58.969Z,100.00
2022-08-24T06:30:06.309Z,100.00
2022-08-24T06:33:11.833Z,100.00
2022-08-24T06:36:18.800Z,100.00
2022-08-24T06:39:28.252Z,100.00
2022-08-24T06:42:34.321Z,100.00
2022-08-24T06:45:41.639Z,100.00
2022-08-24T06:48:51.389Z,100.00
2022-08-24T06:51:58.459Z,100.00
2022-08-24T06:55:04.193Z,100.00
2022-08-24T06:58:10.812Z,100.00
2022-08-24T07:01:17.860Z,100.00
2022-08-24T07:04:28.024Z,100.00
2022-08-24T07:07:35.212Z,100.00
2022-08-24T07:10:40.631Z,100.00
2022-08-24T07:13:46.752Z,100.00
2022-08-24T07:16:52.025Z,100.00
2022-08-24T07:19:57.141Z,100.00
2022-08-24T07:23:03.604Z,100.00
2022-08-24T07:26:09.424Z,100.00
2022-08-24T07:29:44.049Z,100.00
2022-08-24T07:32:44.789Z,100.00
2022-08-24T07:35:50.221Z,100.00
2022-08-24T07:39:01.944Z,100.00
2022-08-24T07:42:19.070Z,100.00
2022-08-24T07:45:33.544Z,100.00
2022-08-24T07:48:38.844Z,100.00
2022-08-24T07:51:46.642Z,100.00
2022-08-24T07:54:53.896Z,100.00
2022-08-24T07:57:59.655Z,100.00
2022-08-24T08:01:06.016Z,100.00
2022-08-24T08:04:11.610Z,100.00
2022-08-24T08:07:17.621Z,100.00
2022-08-24T08:10:25.783Z,100.00
2022-08-24T08:13:31.758Z,100.00
2022-08-24T08:16:38.667Z,100.00
2022-08-24T08:19:44.209Z,100.00
2022-08-24T08:23:06.846Z,100.00
2022-08-24T08:26:16.471Z,100.00
2022-08-24T08:29:22.385Z,100.00
2022-08-24T08:32:27.843Z,100.00
2022-08-24T08:35:34.093Z,100.00
2022-08-24T08:38:41.016Z,100.00
2022-08-24T08:42:07.210Z,100.00
2022-08-24T08:45:28.352Z,100.00
2022-08-24T08:48:47.552Z,100.00
2022-08-24T08:52:15.535Z,99.74
2022-08-24T08:55:29.403Z,98.74
2022-08-24T08:58:57.413Z,95.05
2022-08-24T09:02:11.891Z,93.33
2022-08-24T09:05:28.756Z,93.21
2022-08-24T09:08:41.431Z,93.58
2022-08-24T09:11:53.437Z,91.21
2022-08-24T09:15:17.137Z,91.87
2022-08-24T09:18:32.317Z,90.68
2022-08-24T09:21:55.766Z,89.45
2022-08-24T09:25:07.808Z,88.96
2022-08-24T09:28:15.673Z,87.00
2022-08-24T09:31:42.358Z,85.97
2022-08-24T09:34:54.457Z,85.61
2022-08-24T09:38:01.087Z,85.84
2022-08-24T09:41:18.292Z,88.56
2022-08-24T09:44:44.817Z,87.60
2022-08-24T09:47:59.477Z,84.49
2022-08-24T09:51:25.794Z,84.49
2022-08-24T09:54:49.432Z,81.78
2022-08-24T09:58:02.653Z,80.67
2022-08-24T10:01:12.328Z,83.01
2022-08-24T10:04:24.213Z,82.18
2022-08-24T10:07:35.412Z,80.92
2022-08-24T10:10:48.043Z,80.36
2022-08-24T10:13:59.558Z,80.89
2022-08-24T10:17:11.014Z,82.89
2022-08-24T10:20:23.877Z,85.09
2022-08-24T10:23:38.478Z,86.00
2022-08-24T10:26:56.062Z,85.90
2022-08-24T10:30:34.352Z,88.81
2022-08-24T10:33:49.791Z,90.48
2022-08-24T10:37:06.196Z,91.85
2022-08-24T10:40:33.287Z,90.83
2022-08-24T10:43:52.832Z,91.34
2022-08-24T10:47:00.729Z,90.92
2022-08-24T10:50:31.045Z,89.69
2022-08-24T10:53:37.205Z,89.85
2022-08-24T10:56:43.952Z,89.48
2022-08-24T10:59:56.063Z,93.46
2022-08-24T11:03:06.953Z,90.15
2022-08-24T11:06:16.688Z,91.71
2022-08-24T11:09:21.772Z,92.65
2022-08-24T11:12:28.893Z,96.01
2022-08-24T11:15:34.117Z,93.70
2022-08-24T11:18:50.560Z,96.20
2022-08-24T11:21:58.188Z,96.49
2022-08-24T11:25:06.059Z,96.68
2022-08-24T11:28:21.298Z,98.70
2022-08-24T11:31:32.728Z,100.00
2022-08-24T11:34:40.978Z,100.00
2022-08-24T11:37:48.288Z,100.00
2022-08-24T11:40:56.673Z,99.07
2022-08-24T11:44:05.362Z,98.92
2022-08-24T11:47:28.108Z,100.00
2022-08-24T11:50:36.988Z,100.00
2022-08-24T11:53:57.268Z,100.00
2022-08-24T11:57:08.432Z,100.00
2022-08-24T12:00:17.761Z,100.00
2022-08-24T12:03:34.356Z,100.00
2022-08-24T12:06:46.195Z,100.00
2022-08-24T12:10:03.061Z,100.00
2022-08-24T12:13:11.105Z,100.00
2022-08-24T12:16:21.126Z,100.00
2022-08-24T12:19:28.621Z,100.00
2022-08-24T12:22:34.378Z,100.00
2022-08-24T12:25:58.115Z,100.00
2022-08-24T12:29:05.701Z,100.00
2022-08-24T12:32:13.351Z,100.00
2022-08-24T12:35:20.162Z,100.00
2022-08-24T12:38:27.894Z,100.00
2022-08-24T12:41:36.557Z,100.00
2022-08-24T12:44:46.605Z,100.00
2022-08-24T12:47:55.945Z,100.00
2022-08-24T12:51:08.741Z,100.00
2022-08-24T12:54:23.708Z,100.00
2022-08-24T12:57:54.715Z,100.00
2022-08-24T13:01:06.288Z,100.00
2022-08-24T13:04:17.689Z,100.00
2022-08-24T13:07:29.088Z,100.00
2022-08-24T13:10:37.877Z,100.00
2022-08-24T13:13:47.439Z,100.00
2022-08-24T13:17:09.185Z,100.00
2022-08-24T13:20:20.149Z,100.00
2022-08-24T13:23:27.425Z,100.00
2022-08-24T13:26:35.991Z,100.00
2022-08-24T13:29:43.571Z,100.00
2022-08-24T13:32:51.629Z,100.00
2022-08-24T13:35:58.821Z,100.00
2022-08-24T13:39:13.617Z,100.00
2022-08-24T13:42:29.546Z,100.00
2022-08-24T13:45:38.173Z,100.00
2022-08-24T13:48:48.874Z,100.00
2022-08-24T13:51:57.736Z,100.00
2022-08-24T13:55:12.154Z,100.00
2022-08-24T13:58:24.806Z,100.00
2022-08-24T14:01:38.544Z,100.00
2022-08-24T14:04:46.302Z,100.00
2022-08-24T14:07:56.858Z,100.00
2022-08-24T14:11:08.715Z,100.00
2022-08-24T14:14:17.984Z,100.00
2022-08-24T14:17:47.889Z,100.00
2022-08-24T14:21:09.295Z,100.00
2022-08-24T14:24:23.809Z,100.00
2022-08-24T14:27:37.236Z,100.00
2022-08-24T14:30:54.298Z,100.00
2022-08-24T14:34:13.460Z,100.00
2022-08-24T14:37:21.293Z,100.00
2022-08-24T14:40:32.885Z,100.00
2022-08-24T14:43:51.654Z,100.00
2022-08-24T14:47:04.197Z,100.00
2022-08-24T14:50:15.033Z,100.00
2022-08-24T14:53:31.060Z,100.00
2022-08-24T14:56:45.565Z,100.00
2022-08-24T14:59:56.195Z,100.00
2022-08-24T15:03:12.020Z,100.00
2022-08-24T15:06:27.234Z,100.00
2022-08-24T15:09:35.672Z,100.00
2022-08-24T15:12:44.914Z,100.00
2022-08-24T15:15:53.204Z,100.00
2022-08-24T15:19:02.941Z,100.00
2022-08-24T15:22:11.644Z,100.00
2022-08-24T15:25:19.825Z,100.00
2022-08-24T15:28:27.612Z,100.00
2022-08-24T15:31:33.284Z,100.00
2022-08-24T15:34:42.400Z,100.00
2022-08-24T15:37:48.769Z,100.00
2022-08-24T15:41:04.473Z,100.00
2022-08-24T15:44:21.430Z,100.00
2022-08-24T15:47:31.240Z,100.00
2022-08-24T15:50:43.433Z,100.00
2022-08-24T15:53:50.253Z,100.00
2022-08-24T15:56:57.144Z,100.00
2022-08-24T16:00:08.533Z,100.00
2022-08-24T16:03:20.330Z,100.00
2022-08-24T16:06:27.168Z,100.00
2022-08-24T16:09:37.676Z,100.00
2022-08-24T16:12:42.918Z,100.00
2022-08-24T16:15:50.222Z,100.00
2022-08-24T16:18:58.220Z,100.00
2022-08-24T16:22:05.354Z,100.00
2022-08-24T16:25:16.590Z,100.00
2022-08-24T16:28:35.684Z,100.00
2022-08-24T16:31:45.511Z,100.00
2022-08-24T16:34:51.863Z,99.93
2022-08-24T16:37:57.632Z,100.00
2022-08-24T16:41:06.088Z,100.00
2022-08-24T16:44:12.145Z,100.00
2022-08-24T16:47:18.524Z,100.00
2022-08-24T16:50:27.142Z,100.00
2022-08-24T16:53:33.101Z,100.00
2022-08-24T16:56:40.092Z,100.00
2022-08-24T16:59:46.025Z,100.00
2022-08-24T17:02:51.917Z,100.00
2022-08-24T17:05:58.266Z,100.00
2022-08-24T17:09:03.618Z,100.00
2022-08-24T17:12:10.383Z,100.00
2022-08-24T17:15:16.293Z,100.00
2022-08-24T17:18:22.023Z,100.00
2022-08-24T17:21:27.701Z,100.00
2022-08-24T17:24:33.542Z,100.00
2022-08-24T17:27:40.439Z,100.00
2022-08-24T17:30:48.608Z,100.00
2022-08-24T17:33:56.869Z,100.00
2022-08-24T17:37:02.308Z,100.00
2022-08-24T17:40:09.794Z,100.00
2022-08-24T17:43:16.840Z,100.00
2022-08-24T17:46:22.884Z,100.00
2022-08-24T17:49:28.712Z,100.00
2022-08-24T17:52:33.937Z,100.00
2022-08-24T17:55:39.856Z,100.00
2022-08-24T17:58:59.993Z,100.00
2022-08-24T18:02:07.165Z,100.00
2022-08-24T18:05:14.507Z,100.00
2022-08-24T18:08:19.948Z,100.00
2022-08-24T18:11:26.811Z,100.00
2022-08-24T18:14:34.662Z,100.00
2022-08-24T18:17:40.669Z,100.00
2022-08-24T18:20:48.720Z,100.00
2022-08-24T18:23:55.060Z,100.00
2022-08-24T18:27:00.805Z,100.00
2022-08-24T18:30:10.187Z,100.00
2022-08-24T18:33:15.540Z,100.00
2022-08-24T18:36:23.521Z,100.00
2022-08-24T18:39:28.891Z,100.00
2022-08-24T18:42:34.779Z,100.00
2022-08-24T18:45:41.734Z,100.00
2022-08-24T18:48:47.178Z,100.00
2022-08-24T18:51:52.870Z,100.00
2022-08-24T18:54:58.646Z,100.00
2022-08-24T18:58:05.443Z,100.00
2022-08-24T19:01:13.176Z,100.00
2022-08-24T19:04:18.592Z,100.00
2022-08-24T19:07:28.465Z,100.00
2022-08-24T19:10:36.850Z,100.00
2022-08-24T19:13:42.004Z,100.00
2022-08-24T19:16:49.233Z,100.00
2022-08-24T19:19:57.975Z,100.00
2022-08-24T19:23:07.549Z,100.00
2022-08-24T19:26:13.476Z,100.00
2022-08-24T19:29:38.900Z,100.00
2022-08-24T19:32:49.902Z,100.00
2022-08-24T19:35:56.049Z,100.00
2022-08-24T19:39:01.490Z,100.00
2022-08-24T19:42:07.520Z,100.00
2022-08-24T19:45:34.811Z,100.00
2022-08-24T19:48:44.063Z,100.00
2022-08-24T19:51:51.097Z,100.00
2022-08-24T19:54:58.469Z,100.00
2022-08-24T19:58:06.946Z,100.00
2022-08-24T20:01:13.990Z,100.00
2022-08-24T20:04:21.017Z,100.00
2022-08-24T20:07:26.440Z,100.00
2022-08-24T20:10:32.470Z,100.00
2022-08-24T20:13:37.894Z,100.00
2022-08-24T20:16:43.200Z,100.00
2022-08-24T20:19:50.099Z,100.00
2022-08-24T20:22:55.925Z,100.00
2022-08-24T20:26:02.556Z,100.00
2022-08-24T20:29:08.092Z,100.00
2022-08-24T20:32:13.936Z,100.00
2022-08-24T20:35:20.879Z,100.00
2022-08-24T20:38:31.742Z,100.00
2022-08-24T20:41:37.804Z,100.00
2022-08-24T20:44:43.352Z,100.00
2022-08-24T20:47:50.289Z,100.00
2022-08-24T20:51:02.585Z,100.00
2022-08-24T20:54:08.917Z,100.00
2022-08-24T20:57:21.747Z,100.00
2022-08-24T21:00:34.593Z,100.00
2022-08-24T21:03:40.225Z,100.00
2022-08-24T21:06:47.158Z,100.00
2022-08-24T21:09:59.930Z,100.00
2022-08-24T21:13:08.746Z,100.00
2022-08-24T21:16:15.078Z,100.00
2022-08-24T21:19:20.750Z,100.00
2022-08-24T21:22:27.506Z,100.00
2022-08-24T21:25:35.640Z,100.00
2022-08-24T21:28:45.210Z,100.00
2022-08-24T21:32:04.187Z,100.00
2022-08-24T21:35:09.570Z,100.00
2022-08-24T21:38:22.812Z,100.00
2022-08-24T21:41:30.538Z,100.00
2022-08-24T21:49:19.383Z,100.00
2022-08-24T21:53:28.617Z,100.00
2022-08-24T22:01:14.978Z,100.00
2022-08-24T22:04:20.482Z,100.00
2022-08-24T22:07:26.177Z,100.00
2022-08-24T22:10:32.093Z,100.00
2022-08-24T22:13:38.743Z,100.00
2022-08-24T22:16:44.016Z,100.00
2022-08-24T22:19:49.517Z,100.00
2022-08-24T22:22:55.262Z,100.00
2022-08-24T22:26:00.861Z,100.00
2022-08-24T22:29:08.829Z,100.00
2022-08-24T22:32:14.302Z,100.00
2022-08-24T22:35:19.890Z,100.00
2022-08-24T22:38:25.473Z,100.00
2022-08-24T22:41:31.952Z,100.00
2022-08-24T22:44:39.217Z,100.00
2022-08-24T22:47:44.467Z,100.00
2022-08-24T22:50:49.881Z,100.00
2022-08-24T22:53:55.327Z,100.00
2022-08-24T22:57:00.607Z,100.00
2022-08-24T23:00:08.572Z,100.00
2022-08-24T23:03:14.693Z,100.00
2022-08-24T23:06:20.424Z,100.00
2022-08-24T23:09:28.680Z,100.00
2022-08-24T23:12:47.138Z,100.00
2022-08-24T23:15:53.989Z,100.00
2022-08-24T23:19:16.734Z,100.00
2022-08-24T23:22:22.396Z,100.00
2022-08-24T23:25:27.554Z,100.00
2022-08-24T23:28:33.245Z,100.00
2022-08-24T23:31:40.069Z,100.00
2022-08-24T23:34:45.912Z,100.00
2022-08-24T23:37:51.477Z,100.00
2022-08-24T23:40:57.146Z,100.00
2022-08-24T23:44:04.349Z,100.00
2022-08-24T23:47:10.775Z,100.00
2022-08-24T23:50:18.797Z,100.00
2022-08-24T23:53:25.229Z,100.00
2022-08-24T23:56:32.121Z,100.00
2022-08-24T23:59:37.494Z,100.00
